sensor_id;sensor_type;location;lat;lon;timestamp;pressure;altitude;pressure_sealevel;temperature;humidity
66547;BME280;53400;50.364;14.874;2023-05-12T00:01:03;98580.81;;;13.70;66.00
66547;BME280;53400;50.364;14.874;2023-05-12T00:03:29;98581.88;;;13.69;64.47
66547;BME280;53400;50.364;14.874;2023-05-12T00:05:55;98576.00;;;13.92;63.41
66547;BME280;53400;50.364;14.874;2023-05-12T00:08:21;98583.28;;;13.92;63.19
66547;BME280;53400;50.364;14.874;2023-05-12T00:10:47;98582.44;;;13.81;64.56
66547;BME280;53400;50.364;14.874;2023-05-12T00:13:13;98583.22;;;13.66;64.34
66547;BME280;53400;50.364;14.874;2023-05-12T00:15:39;98580.03;;;13.90;62.69
66547;BME280;53400;50.364;14.874;2023-05-12T00:18:06;98579.25;;;13.94;63.46
66547;BME280;53400;50.364;14.874;2023-05-12T00:20:32;98582.69;;;13.74;64.88
66547;BME280;53400;50.364;14.874;2023-05-12T00:22:58;98580.03;;;13.85;64.09
66547;BME280;53400;50.364;14.874;2023-05-12T00:25:24;98578.97;;;13.96;63.30
66547;BME280;53400;50.364;14.874;2023-05-12T00:27:50;98581.13;;;14.14;64.08
66547;BME280;53400;50.364;14.874;2023-05-12T00:30:17;98581.13;;;13.99;63.80
66547;BME280;53400;50.364;14.874;2023-05-12T00:32:43;98579.50;;;13.98;63.55
66547;BME280;53400;50.364;14.874;2023-05-12T00:35:10;98575.19;;;13.82;64.28
66547;BME280;53400;50.364;14.874;2023-05-12T00:37:36;98581.38;;;13.92;64.52
66547;BME280;53400;50.364;14.874;2023-05-12T00:40:02;98581.13;;;14.14;63.61
66547;BME280;53400;50.364;14.874;2023-05-12T00:42:29;98578.97;;;14.01;64.45
66547;BME280;53400;50.364;14.874;2023-05-12T00:44:55;98580.84;;;13.85;65.37
66547;BME280;53400;50.364;14.874;2023-05-12T00:47:21;98578.16;;;13.95;64.81
66547;BME280;53400;50.364;14.874;2023-05-12T00:49:47;98575.75;;;14.04;63.44
66547;BME280;53400;50.364;14.874;2023-05-12T00:52:15;98568.72;;;13.77;64.52
66547;BME280;53400;50.364;14.874;2023-05-12T00:54:41;98571.97;;;13.85;64.69
66547;BME280;53400;50.364;14.874;2023-05-12T00:57:08;98577.88;;;13.87;64.81
66547;BME280;53400;50.364;14.874;2023-05-12T00:59:34;98573.25;;;13.57;66.17
66547;BME280;53400;50.364;14.874;2023-05-12T01:02:00;98576.50;;;13.64;65.67
66547;BME280;53400;50.364;14.874;2023-05-12T01:04:26;98576.47;;;13.59;66.46
66547;BME280;53400;50.364;14.874;2023-05-12T01:06:56;98579.22;;;13.79;65.56
66547;BME280;53400;50.364;14.874;2023-05-12T01:09:24;98575.13;;;13.66;66.20
66547;BME280;53400;50.364;14.874;2023-05-12T01:11:50;98574.06;;;13.52;66.80
66547;BME280;53400;50.364;14.874;2023-05-12T01:14:16;98591.75;;;13.38;67.75
66547;BME280;53400;50.364;14.874;2023-05-12T01:16:48;98581.19;;;13.21;68.34
66547;BME280;53400;50.364;14.874;2023-05-12T01:19:28;98576.47;;;12.96;68.61
66547;BME280;53400;50.364;14.874;2023-05-12T01:21:58;98578.31;;;12.90;68.98
66547;BME280;53400;50.364;14.874;2023-05-12T01:24:28;98574.78;;;13.27;67.58
66547;BME280;53400;50.364;14.874;2023-05-12T01:26:55;98577.91;;;13.14;67.40
66547;BME280;53400;50.364;14.874;2023-05-12T01:29:22;98585.16;;;13.13;67.18
66547;BME280;53400;50.364;14.874;2023-05-12T01:31:48;98588.50;;;13.36;66.28
66547;BME280;53400;50.364;14.874;2023-05-12T01:34:15;98587.88;;;13.18;66.61
66547;BME280;53400;50.364;14.874;2023-05-12T01:36:43;98587.69;;;13.25;66.11
66547;BME280;53400;50.364;14.874;2023-05-12T01:39:09;98584.19;;;13.29;65.59
66547;BME280;53400;50.364;14.874;2023-05-12T01:41:35;98594.59;;;13.16;66.02
66547;BME280;53400;50.364;14.874;2023-05-12T01:44:02;98596.31;;;13.32;66.20
66547;BME280;53400;50.364;14.874;2023-05-12T01:46:28;98593.94;;;13.46;65.62
66547;BME280;53400;50.364;14.874;2023-05-12T01:48:54;98593.34;;;13.39;65.09
66547;BME280;53400;50.364;14.874;2023-05-12T01:51:20;98586.94;;;13.45;65.10
66547;BME280;53400;50.364;14.874;2023-05-12T01:53:45;98595.59;;;13.72;64.46
66547;BME280;53400;50.364;14.874;2023-05-12T01:56:12;98593.38;;;13.34;65.84
66547;BME280;53400;50.364;14.874;2023-05-12T01:58:38;98592.81;;;13.31;65.18
66547;BME280;53400;50.364;14.874;2023-05-12T02:01:05;98592.84;;;13.37;65.88
66547;BME280;53400;50.364;14.874;2023-05-12T02:03:31;98593.84;;;13.25;65.93
66547;BME280;53400;50.364;14.874;2023-05-12T02:05:57;98592.31;;;13.40;66.43
66547;BME280;53400;50.364;14.874;2023-05-12T02:08:23;98599.00;;;13.27;66.42
66547;BME280;53400;50.364;14.874;2023-05-12T02:10:49;98602.63;;;13.73;65.38
66547;BME280;53400;50.364;14.874;2023-05-12T02:13:15;98597.19;;;13.63;65.29
66547;BME280;53400;50.364;14.874;2023-05-12T02:15:41;98604.50;;;13.68;64.73
66547;BME280;53400;50.364;14.874;2023-05-12T02:18:08;98605.06;;;13.17;66.51
66547;BME280;53400;50.364;14.874;2023-05-12T02:20:34;98612.25;;;12.54;69.02
66547;BME280;53400;50.364;14.874;2023-05-12T02:23:00;98615.63;;;12.39;69.03
66547;BME280;53400;50.364;14.874;2023-05-12T02:25:27;98613.53;;;12.89;67.41
66547;BME280;53400;50.364;14.874;2023-05-12T02:27:53;98617.94;;;12.62;68.65
66547;BME280;53400;50.364;14.874;2023-05-12T02:30:19;98626.97;;;12.46;68.95
66547;BME280;53400;50.364;14.874;2023-05-12T02:32:45;98614.94;;;12.54;68.98
66547;BME280;53400;50.364;14.874;2023-05-12T02:35:13;98613.81;;;12.45;68.98
66547;BME280;53400;50.364;14.874;2023-05-12T02:37:39;98619.53;;;12.26;69.43
66547;BME280;53400;50.364;14.874;2023-05-12T02:40:06;98624.91;;;12.26;67.28
66547;BME280;53400;50.364;14.874;2023-05-12T02:42:32;98616.38;;;12.34;67.26
66547;BME280;53400;50.364;14.874;2023-05-12T02:45:00;98623.50;;;12.19;67.78
66547;BME280;53400;50.364;14.874;2023-05-12T02:47:26;98620.25;;;12.16;68.07
66547;BME280;53400;50.364;14.874;2023-05-12T02:49:56;98623.22;;;12.15;68.18
66547;BME280;53400;50.364;14.874;2023-05-12T02:52:23;98622.53;;;12.30;67.95
66547;BME280;53400;50.364;14.874;2023-05-12T02:54:49;98628.16;;;12.28;68.22
66547;BME280;53400;50.364;14.874;2023-05-12T02:57:15;98629.75;;;12.24;68.09
66547;BME280;53400;50.364;14.874;2023-05-12T02:59:41;98623.34;;;12.68;66.39
66547;BME280;53400;50.364;14.874;2023-05-12T03:02:07;98621.84;;;12.45;66.90
66547;BME280;53400;50.364;14.874;2023-05-12T03:04:33;98632.50;;;12.34;66.71
66547;BME280;53400;50.364;14.874;2023-05-12T03:06:59;98629.38;;;12.15;67.77
66547;BME280;53400;50.364;14.874;2023-05-12T03:09:27;98629.31;;;12.05;67.12
66547;BME280;53400;50.364;14.874;2023-05-12T03:11:53;98629.31;;;12.05;67.66
66547;BME280;53400;50.364;14.874;2023-05-12T03:14:19;98632.44;;;12.29;66.56
66547;BME280;53400;50.364;14.874;2023-05-12T03:16:45;98641.94;;;12.37;65.80
66547;BME280;53400;50.364;14.874;2023-05-12T03:19:11;98632.50;;;12.34;65.74
66547;BME280;53400;50.364;14.874;2023-05-12T03:21:37;98636.47;;;12.27;66.04
66547;BME280;53400;50.364;14.874;2023-05-12T03:24:04;98633.75;;;12.54;65.28
66547;BME280;53400;50.364;14.874;2023-05-12T03:26:31;98635.13;;;12.61;65.12
66547;BME280;53400;50.364;14.874;2023-05-12T03:28:57;98630.03;;;12.28;65.92
66547;BME280;53400;50.364;14.874;2023-05-12T03:31:23;98636.44;;;12.22;66.33
66547;BME280;53400;50.364;14.874;2023-05-12T03:33:49;98637.28;;;12.27;66.20
66547;BME280;53400;50.364;14.874;2023-05-12T03:36:15;98629.88;;;12.39;65.12
66547;BME280;53400;50.364;14.874;2023-05-12T03:38:41;98633.78;;;12.27;65.66
66547;BME280;53400;50.364;14.874;2023-05-12T03:41:07;98626.81;;;11.99;66.98
66547;BME280;53400;50.364;14.874;2023-05-12T03:43:34;98634.94;;;12.36;66.58
66547;BME280;53400;50.364;14.874;2023-05-12T03:46:01;98637.34;;;12.05;66.86
66547;BME280;53400;50.364;14.874;2023-05-12T03:48:27;98638.69;;;11.59;69.00
66547;BME280;53400;50.364;14.874;2023-05-12T03:50:53;98639.38;;;11.71;68.79
66547;BME280;53400;50.364;14.874;2023-05-12T03:53:19;98639.19;;;11.56;69.82
66547;BME280;53400;50.364;14.874;2023-05-12T03:55:45;98641.22;;;11.92;68.45
66547;BME280;53400;50.364;14.874;2023-05-12T03:58:11;98636.50;;;12.00;68.70
66547;BME280;53400;50.364;14.874;2023-05-12T04:00:38;98639.00;;;11.84;69.40
66547;BME280;53400;50.364;14.874;2023-05-12T04:03:04;98638.97;;;12.06;68.95
66547;BME280;53400;50.364;14.874;2023-05-12T04:05:30;98641.09;;;11.82;69.25
66547;BME280;53400;50.364;14.874;2023-05-12T04:07:56;98651.69;;;11.23;71.64
66547;BME280;53400;50.364;14.874;2023-05-12T04:10:25;98651.94;;;11.05;72.69
66547;BME280;53400;50.364;14.874;2023-05-12T04:12:51;98654.50;;;11.33;71.75
66547;BME280;53400;50.364;14.874;2023-05-12T04:15:17;98648.94;;;11.40;71.38
66547;BME280;53400;50.364;14.874;2023-05-12T04:17:44;98656.69;;;11.36;71.34
66547;BME280;53400;50.364;14.874;2023-05-12T04:20:11;98653.50;;;11.17;71.90
66547;BME280;53400;50.364;14.874;2023-05-12T04:22:37;98651.88;;;11.38;70.80
66547;BME280;53400;50.364;14.874;2023-05-12T04:25:04;98660.34;;;11.30;71.24
66547;BME280;53400;50.364;14.874;2023-05-12T04:27:30;98656.91;;;11.35;70.91
66547;BME280;53400;50.364;14.874;2023-05-12T04:29:55;98667.84;;;11.94;72.75
66547;BME280;53400;50.364;14.874;2023-05-12T04:32:22;98677.66;;;12.10;69.63
66547;BME280;53400;50.364;14.874;2023-05-12T04:34:49;98674.78;;;11.90;69.02
66547;BME280;53400;50.364;14.874;2023-05-12T04:37:16;98674.34;;;11.54;70.14
66547;BME280;53400;50.364;14.874;2023-05-12T04:39:42;98679.47;;;11.83;69.85
66547;BME280;53400;50.364;14.874;2023-05-12T04:42:08;98677.22;;;11.75;70.25
66547;BME280;53400;50.364;14.874;2023-05-12T04:44:34;98676.91;;;11.88;69.84
66547;BME280;53400;50.364;14.874;2023-05-12T04:47:00;98677.59;;;11.83;69.77
66547;BME280;53400;50.364;14.874;2023-05-12T04:49:26;98688.22;;;11.73;69.54
66547;BME280;53400;50.364;14.874;2023-05-12T04:51:54;98681.13;;;11.84;69.83
66547;BME280;53400;50.364;14.874;2023-05-12T04:54:20;98677.88;;;11.82;70.32
66547;BME280;53400;50.364;14.874;2023-05-12T04:56:46;98674.53;;;12.19;69.88
66547;BME280;53400;50.364;14.874;2023-05-12T04:59:15;98677.41;;;13.14;66.75
66547;BME280;53400;50.364;14.874;2023-05-12T05:01:41;98676.47;;;13.35;65.60
66547;BME280;53400;50.364;14.874;2023-05-12T05:04:07;98680.13;;;13.71;65.98
66547;BME280;53400;50.364;14.874;2023-05-12T05:06:33;98683.66;;;13.87;64.87
66547;BME280;53400;50.364;14.874;2023-05-12T05:09:01;98671.44;;;13.54;66.11
66547;BME280;53400;50.364;14.874;2023-05-12T05:11:27;98677.16;;;13.68;65.14
66547;BME280;53400;50.364;14.874;2023-05-12T05:13:53;98681.75;;;13.77;64.05
66547;BME280;53400;50.364;14.874;2023-05-12T05:16:19;98682.34;;;13.95;65.41
66547;BME280;53400;50.364;14.874;2023-05-12T05:18:45;98674.41;;;14.61;62.92
66547;BME280;53400;50.364;14.874;2023-05-12T05:21:11;98682.19;;;15.04;61.93
66547;BME280;53400;50.364;14.874;2023-05-12T05:23:41;98687.28;;;15.10;61.65
66547;BME280;53400;50.364;14.874;2023-05-12T05:26:08;98689.53;;;15.78;61.66
66547;BME280;53400;50.364;14.874;2023-05-12T05:28:34;98689.31;;;16.19;58.99
66547;BME280;53400;50.364;14.874;2023-05-12T05:31:00;98698.53;;;15.43;59.72
66547;BME280;53400;50.364;14.874;2023-05-12T05:33:26;98699.38;;;16.09;59.23
66547;BME280;53400;50.364;14.874;2023-05-12T05:35:52;98691.13;;;16.29;57.83
66547;BME280;53400;50.364;14.874;2023-05-12T05:38:18;98691.03;;;16.44;57.78
66547;BME280;53400;50.364;14.874;2023-05-12T05:40:44;98694.44;;;16.55;58.06
66547;BME280;53400;50.364;14.874;2023-05-12T05:43:11;98690.00;;;16.35;57.85
66547;BME280;53400;50.364;14.874;2023-05-12T05:45:37;98692.69;;;16.74;56.43
66547;BME280;53400;50.364;14.874;2023-05-12T05:48:03;98700.19;;;16.83;56.64
66547;BME280;53400;50.364;14.874;2023-05-12T05:50:30;98708.66;;;16.76;56.83
66547;BME280;53400;50.364;14.874;2023-05-12T05:52:55;98703.09;;;16.91;55.95
66547;BME280;53400;50.364;14.874;2023-05-12T05:55:22;98696.38;;;16.89;55.71
66547;BME280;53400;50.364;14.874;2023-05-12T05:57:48;98704.56;;;16.79;56.76
66547;BME280;53400;50.364;14.874;2023-05-12T06:00:16;98705.88;;;16.86;56.54
66547;BME280;53400;50.364;14.874;2023-05-12T06:02:42;98715.84;;;17.20;56.07
66547;BME280;53400;50.364;14.874;2023-05-12T06:05:08;98712.16;;;17.59;54.64
66547;BME280;53400;50.364;14.874;2023-05-12T06:07:34;98721.97;;;17.55;55.36
66547;BME280;53400;50.364;14.874;2023-05-12T06:10:00;98717.59;;;17.35;56.29
66547;BME280;53400;50.364;14.874;2023-05-12T06:12:26;98716.22;;;17.08;56.89
66547;BME280;53400;50.364;14.874;2023-05-12T06:14:52;98720.31;;;17.06;57.81
66547;BME280;53400;50.364;14.874;2023-05-12T06:17:19;98719.59;;;17.24;57.77
66547;BME280;53400;50.364;14.874;2023-05-12T06:19:45;98731.47;;;16.99;58.83
66547;BME280;53400;50.364;14.874;2023-05-12T06:22:12;98727.94;;;16.99;59.17
66547;BME280;53400;50.364;14.874;2023-05-12T06:24:38;98727.28;;;17.12;58.41
66547;BME280;53400;50.364;14.874;2023-05-12T06:27:05;98742.00;;;17.30;57.93
66547;BME280;53400;50.364;14.874;2023-05-12T06:29:31;98738.19;;;17.31;57.72
66547;BME280;53400;50.364;14.874;2023-05-12T06:31:57;98735.97;;;17.38;58.69
66547;BME280;53400;50.364;14.874;2023-05-12T06:34:25;98733.72;;;17.45;57.39
66547;BME280;53400;50.364;14.874;2023-05-12T06:36:52;98737.97;;;17.51;56.39
66547;BME280;53400;50.364;14.874;2023-05-12T06:39:18;98731.16;;;17.01;58.46
66547;BME280;53400;50.364;14.874;2023-05-12T06:41:44;98740.63;;;17.32;57.86
66547;BME280;53400;50.364;14.874;2023-05-12T06:44:10;98736.78;;;16.70;59.92
66547;BME280;53400;50.364;14.874;2023-05-12T06:46:37;98741.84;;;16.87;58.65
66547;BME280;53400;50.364;14.874;2023-05-12T06:49:03;98740.22;;;16.86;59.65
66547;BME280;53400;50.364;14.874;2023-05-12T06:51:31;98747.31;;;17.11;58.31
66547;BME280;53400;50.364;14.874;2023-05-12T06:53:57;98748.09;;;17.16;58.79
66547;BME280;53400;50.364;14.874;2023-05-12T06:56:23;98744.66;;;17.35;57.89
66547;BME280;53400;50.364;14.874;2023-05-12T06:58:49;98746.03;;;17.32;58.71
66547;BME280;53400;50.364;14.874;2023-05-12T07:01:15;98742.72;;;17.11;58.16
66547;BME280;53400;50.364;14.874;2023-05-12T07:03:41;98750.31;;;17.38;58.79
66547;BME280;53400;50.364;14.874;2023-05-12T07:06:07;98746.06;;;17.56;58.82
66547;BME280;53400;50.364;14.874;2023-05-12T07:08:34;98754.56;;;16.86;59.79
66547;BME280;53400;50.364;14.874;2023-05-12T07:11:00;98753.63;;;16.12;61.66
66547;BME280;53400;50.364;14.874;2023-05-12T07:13:27;98743.69;;;16.91;60.61
66547;BME280;53400;50.364;14.874;2023-05-12T07:15:53;98747.94;;;17.03;60.92
66547;BME280;53400;50.364;14.874;2023-05-12T07:18:19;98760.84;;;16.77;61.44
66547;BME280;53400;50.364;14.874;2023-05-12T07:20:44;98749.53;;;17.04;62.45
66547;BME280;53400;50.364;14.874;2023-05-12T07:23:11;98743.25;;;17.13;61.05
66547;BME280;53400;50.364;14.874;2023-05-12T07:25:53;98738.06;;;17.17;59.82
66547;BME280;53400;50.364;14.874;2023-05-12T07:28:21;98744.63;;;17.11;60.67
66547;BME280;53400;50.364;14.874;2023-05-12T07:30:48;98745.66;;;17.15;60.67
66547;BME280;53400;50.364;14.874;2023-05-12T07:33:16;98750.31;;;17.38;60.04
66547;BME280;53400;50.364;14.874;2023-05-12T07:35:42;98755.84;;;17.52;59.56
66547;BME280;53400;50.364;14.874;2023-05-12T07:38:10;98738.19;;;17.31;59.22
66547;BME280;53400;50.364;14.874;2023-05-12T07:40:38;98750.41;;;17.52;59.46
66547;BME280;53400;50.364;14.874;2023-05-12T07:43:06;98744.84;;;17.92;58.96
66547;BME280;53400;50.364;14.874;2023-05-12T07:45:32;98743.91;;;18.01;58.45
66547;BME280;53400;50.364;14.874;2023-05-12T07:47:58;98742.94;;;17.15;63.04
66547;BME280;53400;50.364;14.874;2023-05-12T07:50:25;98746.13;;;16.93;61.40
66547;BME280;53400;50.364;14.874;2023-05-12T07:52:52;98747.03;;;16.78;62.33
66547;BME280;53400;50.364;14.874;2023-05-12T07:55:20;98749.44;;;16.85;62.00
66547;BME280;53400;50.364;14.874;2023-05-12T07:57:48;98755.09;;;17.17;60.08
66547;BME280;53400;50.364;14.874;2023-05-12T08:00:16;98750.53;;;17.42;59.39
66547;BME280;53400;50.364;14.874;2023-05-12T08:02:42;98745.31;;;17.99;57.12
66547;BME280;53400;50.364;14.874;2023-05-12T08:05:09;98756.72;;;17.72;58.34
66547;BME280;53400;50.364;14.874;2023-05-12T08:07:35;98755.66;;;17.43;58.30
66547;BME280;53400;50.364;14.874;2023-05-12T08:10:01;98748.16;;;17.88;58.07
66547;BME280;53400;50.364;14.874;2023-05-12T08:12:27;98746.00;;;18.66;58.72
66547;BME280;53400;50.364;14.874;2023-05-12T08:14:53;98762.50;;;18.89;55.63
66547;BME280;53400;50.364;14.874;2023-05-12T08:17:21;98758.75;;;18.47;58.52
66547;BME280;53400;50.364;14.874;2023-05-12T08:19:46;98755.00;;;18.99;56.00
66547;BME280;53400;50.364;14.874;2023-05-12T08:22:13;98745.69;;;18.87;56.16
66547;BME280;53400;50.364;14.874;2023-05-12T08:24:38;98749.91;;;18.41;56.29
66547;BME280;53400;50.364;14.874;2023-05-12T08:27:05;98751.50;;;18.61;55.36
66547;BME280;53400;50.364;14.874;2023-05-12T08:29:30;98753.84;;;19.19;53.44
66547;BME280;53400;50.364;14.874;2023-05-12T08:31:57;98751.69;;;19.49;53.58
66547;BME280;53400;50.364;14.874;2023-05-12T08:34:24;98758.25;;;19.15;53.89
66547;BME280;53400;50.364;14.874;2023-05-12T08:36:51;98754.59;;;19.39;55.25
66547;BME280;53400;50.364;14.874;2023-05-12T08:39:17;98748.06;;;18.37;55.00
66547;BME280;53400;50.364;14.874;2023-05-12T08:41:47;98751.63;;;18.13;57.35
66547;BME280;53400;50.364;14.874;2023-05-12T08:44:17;98757.19;;;19.30;58.32
66547;BME280;53400;50.364;14.874;2023-05-12T08:46:45;98759.34;;;20.02;51.85
66547;BME280;53400;50.364;14.874;2023-05-12T08:49:15;98757.69;;;19.79;49.69
66547;BME280;53400;50.364;14.874;2023-05-12T08:51:44;98757.88;;;19.82;49.34
66547;BME280;53400;50.364;14.874;2023-05-12T08:54:12;98756.13;;;19.59;50.28
66547;BME280;53400;50.364;14.874;2023-05-12T08:56:39;98757.84;;;19.68;48.32
66547;BME280;53400;50.364;14.874;2023-05-12T08:59:07;98754.88;;;17.91;53.26
66547;BME280;53400;50.364;14.874;2023-05-12T09:01:34;98759.97;;;18.17;51.20
66547;BME280;53400;50.364;14.874;2023-05-12T09:04:00;98753.94;;;18.82;50.13
66547;BME280;53400;50.364;14.874;2023-05-12T09:06:27;98759.47;;;18.71;49.93
66547;BME280;53400;50.364;14.874;2023-05-12T09:08:54;98759.06;;;18.83;50.95
66547;BME280;53400;50.364;14.874;2023-05-12T09:11:21;98759.59;;;19.78;48.90
66547;BME280;53400;50.364;14.874;2023-05-12T09:13:49;98758.00;;;19.31;49.80
66547;BME280;53400;50.364;14.874;2023-05-12T09:16:23;98758.31;;;19.57;48.12
66547;BME280;53400;50.364;14.874;2023-05-12T09:18:50;98757.94;;;20.05;48.93
66547;BME280;53400;50.364;14.874;2023-05-12T09:21:17;98766.28;;;20.36;49.70
66547;BME280;53400;50.364;14.874;2023-05-12T09:23:51;98758.91;;;19.40;47.19
66547;BME280;53400;50.364;14.874;2023-05-12T09:26:19;98753.84;;;19.80;48.58
66547;BME280;53400;50.364;14.874;2023-05-12T09:28:48;98751.09;;;20.07;47.32
66547;BME280;53400;50.364;14.874;2023-05-12T09:31:20;98747.78;;;19.09;50.86
66547;BME280;53400;50.364;14.874;2023-05-12T09:33:47;98745.47;;;19.02;49.78
66547;BME280;53400;50.364;14.874;2023-05-12T09:36:16;98761.78;;;20.04;49.06
66547;BME280;53400;50.364;14.874;2023-05-12T09:38:42;98751.88;;;20.72;44.10
66547;BME280;53400;50.364;14.874;2023-05-12T09:41:08;98751.47;;;20.14;46.19
66547;BME280;53400;50.364;14.874;2023-05-12T09:43:35;98750.56;;;20.33;46.11
66547;BME280;53400;50.364;14.874;2023-05-12T09:46:04;98761.56;;;20.28;46.42
66547;BME280;53400;50.364;14.874;2023-05-12T09:48:30;98747.47;;;21.07;45.35
66547;BME280;53400;50.364;14.874;2023-05-12T09:50:58;98742.09;;;21.16;44.48
66547;BME280;53400;50.364;14.874;2023-05-12T09:53:24;98744.66;;;21.43;44.70
66547;BME280;53400;50.364;14.874;2023-05-12T09:55:51;98746.59;;;21.43;43.96
66547;BME280;53400;50.364;14.874;2023-05-12T09:58:18;98751.84;;;21.39;43.28
66547;BME280;53400;50.364;14.874;2023-05-12T10:00:46;98745.66;;;21.25;44.53
66547;BME280;53400;50.364;14.874;2023-05-12T10:03:16;98735.66;;;21.74;42.20
66547;BME280;53400;50.364;14.874;2023-05-12T10:05:52;98740.56;;;22.12;41.40
66547;BME280;53400;50.364;14.874;2023-05-12T10:08:21;98737.56;;;22.22;42.22
66547;BME280;53400;50.364;14.874;2023-05-12T10:10:50;98734.94;;;22.08;43.97
66547;BME280;53400;50.364;14.874;2023-05-12T10:13:17;98735.06;;;20.70;45.50
66547;BME280;53400;50.364;14.874;2023-05-12T10:15:45;98727.88;;;21.50;43.48
66547;BME280;53400;50.364;14.874;2023-05-12T10:18:14;98725.41;;;21.80;44.84
66547;BME280;53400;50.364;14.874;2023-05-12T10:20:42;98725.03;;;22.73;42.19
66547;BME280;53400;50.364;14.874;2023-05-12T10:23:09;98728.25;;;22.66;40.58
66547;BME280;53400;50.364;14.874;2023-05-12T10:25:38;98722.09;;;21.51;41.96
66547;BME280;53400;50.364;14.874;2023-05-12T10:28:05;98716.38;;;22.19;40.91
66547;BME280;53400;50.364;14.874;2023-05-12T10:30:32;98721.84;;;21.70;42.10
66547;BME280;53400;50.364;14.874;2023-05-12T10:32:59;98716.25;;;21.36;43.41
66547;BME280;53400;50.364;14.874;2023-05-12T10:35:31;98722.72;;;21.48;43.37
66547;BME280;53400;50.364;14.874;2023-05-12T10:38:00;98718.41;;;22.05;42.04
66547;BME280;53400;50.364;14.874;2023-05-12T10:40:28;98713.59;;;22.02;42.01
66547;BME280;53400;50.364;14.874;2023-05-12T10:42:57;98713.13;;;22.08;42.95
66547;BME280;53400;50.364;14.874;2023-05-12T10:45:24;98720.06;;;21.66;42.55
66547;BME280;53400;50.364;14.874;2023-05-12T10:47:50;98720.47;;;21.99;40.42
66547;BME280;53400;50.364;14.874;2023-05-12T10:50:26;98716.44;;;21.88;40.04
66547;BME280;53400;50.364;14.874;2023-05-12T10:52:53;98717.25;;;21.97;40.01
66547;BME280;53400;50.364;14.874;2023-05-12T10:55:29;98717.94;;;22.11;41.28
66547;BME280;53400;50.364;14.874;2023-05-12T10:58:03;98717.06;;;21.85;41.53
66547;BME280;53400;50.364;14.874;2023-05-12T11:00:29;98708.84;;;22.42;40.37
66547;BME280;53400;50.364;14.874;2023-05-12T11:02:55;98711.09;;;22.75;40.61
66547;BME280;53400;50.364;14.874;2023-05-12T11:05:33;98710.59;;;21.63;41.25
66547;BME280;53400;50.364;14.874;2023-05-12T11:08:00;98700.16;;;21.57;42.11
66547;BME280;53400;50.364;14.874;2023-05-12T11:10:27;98705.63;;;22.57;41.06
66547;BME280;53400;50.364;14.874;2023-05-12T11:12:53;98700.09;;;23.18;38.75
66547;BME280;53400;50.364;14.874;2023-05-12T11:15:21;98696.94;;;22.99;38.63
66547;BME280;53400;50.364;14.874;2023-05-12T11:17:47;98696.63;;;22.39;39.49
66547;BME280;53400;50.364;14.874;2023-05-12T11:20:21;98698.09;;;22.19;40.91
66547;BME280;53400;50.364;14.874;2023-05-12T11:22:49;98701.06;;;21.92;41.08
66547;BME280;53400;50.364;14.874;2023-05-12T11:25:16;98696.53;;;21.70;42.79
66547;BME280;53400;50.364;14.874;2023-05-12T11:27:47;98700.00;;;22.54;39.84
66547;BME280;53400;50.364;14.874;2023-05-12T11:30:15;98702.00;;;21.87;41.37
66547;BME280;53400;50.364;14.874;2023-05-12T11:32:41;98694.06;;;22.60;40.61
66547;BME280;53400;50.364;14.874;2023-05-12T11:35:11;98698.50;;;22.91;41.27
66547;BME280;53400;50.364;14.874;2023-05-12T11:37:41;98701.91;;;22.79;39.02
66547;BME280;53400;50.364;14.874;2023-05-12T11:40:17;98700.00;;;22.54;38.56
66547;BME280;53400;50.364;14.874;2023-05-12T11:42:44;98702.09;;;22.48;38.32
66547;BME280;53400;50.364;14.874;2023-05-12T11:45:20;98703.16;;;21.95;40.01
66547;BME280;53400;50.364;14.874;2023-05-12T11:47:46;98705.47;;;20.99;39.98
66547;BME280;53400;50.364;14.874;2023-05-12T11:50:19;98703.72;;;21.35;41.11
66547;BME280;53400;50.364;14.874;2023-05-12T11:52:46;98702.22;;;21.51;41.59
66547;BME280;53400;50.364;14.874;2023-05-12T11:55:12;98707.25;;;21.66;40.39
66547;BME280;53400;50.364;14.874;2023-05-12T11:57:54;98702.34;;;21.94;41.35
66547;BME280;53400;50.364;14.874;2023-05-12T12:00:27;98705.81;;;21.69;40.97
66547;BME280;53400;50.364;14.874;2023-05-12T12:03:06;98695.78;;;21.95;40.71
66547;BME280;53400;50.364;14.874;2023-05-12T12:05:33;98703.13;;;21.86;41.74
66547;BME280;53400;50.364;14.874;2023-05-12T12:08:04;98706.88;;;21.50;42.16
66547;BME280;53400;50.364;14.874;2023-05-12T12:10:30;98714.97;;;21.82;40.46
66547;BME280;53400;50.364;14.874;2023-05-12T12:12:58;98708.06;;;21.75;41.21
66547;BME280;53400;50.364;14.874;2023-05-12T12:15:24;98711.63;;;21.76;42.69
66547;BME280;53400;50.364;14.874;2023-05-12T12:17:50;98719.69;;;21.98;42.16
66547;BME280;53400;50.364;14.874;2023-05-12T12:20:16;98717.66;;;21.64;41.59
66547;BME280;53400;50.364;14.874;2023-05-12T12:22:43;98716.88;;;21.72;42.49
66547;BME280;53400;50.364;14.874;2023-05-12T12:25:09;98722.41;;;21.19;45.71
66547;BME280;53400;50.364;14.874;2023-05-12T12:27:35;98724.56;;;21.30;45.15
66547;BME280;53400;50.364;14.874;2023-05-12T12:30:03;98723.81;;;21.39;45.88
66547;BME280;53400;50.364;14.874;2023-05-12T12:32:29;98722.53;;;21.45;45.84
66547;BME280;53400;50.364;14.874;2023-05-12T12:34:56;98720.81;;;21.26;45.29
66547;BME280;53400;50.364;14.874;2023-05-12T12:37:24;98735.22;;;21.18;45.78
66547;BME280;53400;50.364;14.874;2023-05-12T12:39:50;98724.34;;;20.96;45.77
66547;BME280;53400;50.364;14.874;2023-05-12T12:42:16;98724.91;;;20.84;46.60
66547;BME280;53400;50.364;14.874;2023-05-12T12:44:42;98727.00;;;20.87;46.92
66547;BME280;53400;50.364;14.874;2023-05-12T12:47:11;98728.38;;;20.76;46.27
66547;BME280;53400;50.364;14.874;2023-05-12T12:49:38;98732.91;;;21.12;45.90